Terminal Aerodrome Forecast
Issued by NWS Boston, MA

Home | Current Version | Previous Version | Text Only | Print | Product List | Glossary On
Versions: 1 2 3 4 5 6 7 8 9 10 11 12 13 14 15 16 17 18 19 20 21 22 23 24 25 26 27 28 29 30 31 32 33 34 35 36 37
000
FTUS41 KBOX 170521
TAFBOS
TAF
KBOS 170521Z 1706/1812 29004KT P6SM FEW080
     FM171300 VRB04KT P6SM SCT250
     FM172000 13008KT P6SM FEW250
     FM180200 21005KT P6SM FEW250
     FM181100 27005KT P6SM SKC=

USA.gov is the U.S. government's official web portal to all federal, state and local government web resources and services.